Aérodrome :
LOGIN :

S'inscrire | Disclaimer

   EN    FR    IT 

 










Légende :    VFR   VFR Marginal   IFR   IFR Intensif   IFR Très Intensif
Visi : 
Plafond : 
>= 8 km
>= 3000ft
5 à 8 km
1000 à 3000 ft
1500m à 5 km
500 à 1000 ft
800 à 1500m
200 à 500 ft
< 800m
< 200 ft
Symboles :   Orages  Brouillard  Fortes neiges  Fortes précipitations  Vent > 20 kt
SIGMETs :   Divers  Orages  Givrage  Turbulence  Onde Orograph.  Cendres Volcan.






- Altitude de l'aérodrome : 1090 ft
- Code IATA : CFE


LFLC - Clermont-Ferrand Auvergne

DERNIER METAR :
  • 071430Z AUTO 30004KT 270V330 9999 SCT032 SCT039 OVC050 13/07 Q1020 NOSIG

METARs EXPIRÉS :
  • 071400Z AUTO 27005KT 9999 BKN033 OVC054 13/06 Q1020 NOSIG
  • 071330Z AUTO 26010KT 9999 BKN034 BKN052 13/07 Q1020 BECMG 18008KT
  • 071300Z AUTO 22003KT 170V270 9999 FEW034 BKN049 BKN056 13/07 Q1020 NOSIG
  • 071230Z AUTO VRB02KT 9999 BKN033 BKN039 BKN048 12/06 Q1020 NOSIG
  • 071200Z AUTO 18007KT 160V220 9999 BKN038 OVC056 12/06 Q1021 NOSIG

TAF TAF LFLC
Valide du 07 à 15h jusqu'au 08 à 15h UTC


071400Z 0715/0815 22008KT 9999 BKN050
TEMPO 0715/0812 BKN030
TEMPO 0812/0815 20015G25KT 4000 RA BKN020
ATIS : +33 4 73 62 74 38



MET'MAP, la Météo Aéronautique d'un coup d'oeil ! - Copyright ORBIFLY Décembre 2007 - Disclaimer

ORBIFLY MET'MAP TEAM :

Programmation & Développement : Alexandra Zaïnal
Sur une idée originale de : Baudouin d'Aumeries
Assistance à la programmation : Marc-Olivier Méhu
Soutien technique & logistique : Manuel Goepfert

Contact : metmap@orbifly.com




SOURCES & CREDITS :

   NOAA